This demonstration page uses our WeatherBlox Daily Observations layout. Learn more.

Left ArrowRight Arrow

36.17497, -115.13722

Hourly Observations for September 3, 2016

Temp ( °F °C ) Dew Point ( °F °C ) Humidity (%) Winds ( mph kmh ) Pressure ( in mb ) Visibility ( mi km ) Precip ( " mm )
12:53 am 00:53 Clear 87 30.6 21 -6.1 9 9 WSW 9 15 29.71 1006 10 16.0934 0 0
1:53 am 01:53 Clear 85 29.4 21 -6.1 9 9 WSW 8 13 29.7 1006 10 16.0934 0 0
2:53 am 02:53 Clear 83 28.3 23 -5 11 11 SSW 6 9 29.71 1006 10 16.0934 0 0
3:53 am 03:53 Clear 81 27.2 22 -5.6 11 11 SSW 6 9 29.71 1006 10 16.0934 0 0
4:53 am 04:53 Clear 77 25 22 -5.6 13 13 E 9 15 29.71 1006 10 16.0934 0 0
5:53 am 05:53 Clear 75 23.9 27 -2.8 17 17 NE 5 7 29.72 1006 10 16.0934 0 0
6:53 am 06:53 Sunny 75 23.9 25 -3.9 15 15 S 5 7 29.74 1007 10 16.0934 0 0
7:53 am 07:53 Sunny 79 26.1 27 -2.8 15 15 Calm 29.76 1008 10 16.0934 0 0
8:53 am 08:53 Sunny 85 29.4 27 -2.8 12 12 SSE 12 19 29.75 1008 10 16.0934 0 0
9:53 am 09:53 Sunny 88 31.1 26 -3.3 10 10 SSE 9 15 29.76 1008 10 16.0934 0 0
10:53 am 10:53 Sunny 92 33.3 25 -3.9 9 9 ESE 6 9 29.74 1007 10 16.0934 0 0
11:53 am 11:53 Sunny 97 36.1 29 -1.7 9 9 S 21 33 29.71 1006 10 16.0934 0 0
12:53 pm 12:53 Sunny 96 35.6 29 -1.7 9 9 SW 21 33 29.69 1006 10 16.0934 0 0
1:53 pm 13:53 Sunny 98 36.7 30 -1.1 9 9 SW 22 35 29.67 1005 10 16.0934 0 0
2:53 pm 14:53 Sunny 99 37.2 27 -2.8 8 8 WSW 24 39 29.64 1004 10 16.0934 0 0
3:53 pm 15:53 Sunny 98 36.7 23 -5 7 7 SW 24 39 29.62 1003 10 16.0934 0 0
4:53 pm 16:53 Sunny 97 36.1 19 -7.2 6 6 SW 23 37 29.61 1003 10 16.0934 0 0
5:53 pm 17:53 Sunny 96 35.6 14 -10 5 5 SW 18 30 29.6 1002 10 16.0934 0 0
6:53 pm 18:53 Sunny 93 33.9 13 -10.6 5 5 WSW 18 30 29.6 1002 10 16.0934 0 0
7:53 pm 19:53 Clear 90 32.2 16 -8.9 6 6 SW 15 24 29.58 1002 10 16.0934 0 0
8:53 pm 20:53 Clear 88 31.1 18 -7.8 7 7 WSW 10 17 29.6 1002 10 16.0934 0 0
9:53 pm 21:53 Clear 85 29.4 21 -6.1 9 9 SSW 6 9 29.6 1002 10 16.0934 0 0
10:53 pm 22:53 Clear 85 29.4 20 -6.7 9 9 WSW 8 13 29.6 1003 10 16.0934 0 0
11:53 pm 23:53 Clear 85 29.4 32 0 15 15 VRB 3 6 29.61 1003 10 16.0934 0 0

Powered by AerisWeather